createdAt,value
2017-10-24T00:00:43.462Z,99.98
2017-10-24T00:01:43.451Z,99.99
2017-10-24T00:02:43.448Z,99.79
2017-10-24T00:03:43.445Z,99.99
2017-10-24T00:04:43.443Z,99.99
2017-10-24T00:05:43.436Z,99.69
2017-10-24T00:06:43.451Z,99.99
2017-10-24T00:07:43.428Z,99.99
2017-10-24T00:08:43.432Z,99.99
2017-10-24T00:09:43.422Z,99.60
2017-10-24T00:10:43.421Z,99.89
2017-10-24T00:11:43.416Z,99.99
2017-10-24T00:12:43.412Z,99.99
2017-10-24T00:13:43.411Z,99.99
2017-10-24T00:14:43.409Z,99.99
2017-10-24T00:15:43.403Z,99.99
2017-10-24T00:16:43.397Z,99.98
2017-10-24T00:17:43.400Z,99.99
2017-10-24T00:18:43.392Z,99.60
2017-10-24T00:19:43.389Z,99.99
2017-10-24T00:20:43.386Z,99.99
2017-10-24T00:21:43.381Z,99.98
2017-10-24T00:22:43.378Z,99.99
2017-10-24T00:23:43.372Z,99.99
2017-10-24T00:24:43.369Z,99.98
2017-10-24T00:25:43.368Z,99.89
2017-10-24T00:26:43.369Z,99.99
2017-10-24T00:27:43.367Z,99.99
2017-10-24T00:28:43.357Z,99.99
2017-10-24T00:29:43.350Z,99.99
2017-10-24T00:30:43.352Z,99.99
2017-10-24T00:31:43.344Z,99.99
2017-10-24T00:32:43.343Z,99.99
2017-10-24T00:33:43.334Z,99.99
2017-10-24T00:34:43.333Z,99.99
2017-10-24T00:35:43.337Z,99.99
2017-10-24T00:36:43.344Z,99.99
2017-10-24T00:37:43.320Z,99.99
2017-10-24T00:38:43.323Z,99.99
2017-10-24T00:39:43.318Z,99.99
2017-10-24T00:40:43.321Z,99.99
2017-10-24T00:41:43.314Z,99.99
2017-10-24T00:42:43.307Z,99.99
2017-10-24T00:43:43.309Z,99.99
2017-10-24T00:44:43.302Z,99.89
2017-10-24T00:45:43.298Z,99.79
2017-10-24T00:46:43.289Z,99.99
2017-10-24T00:47:43.286Z,99.99
2017-10-24T00:48:43.285Z,99.99
2017-10-24T00:49:43.284Z,99.99
2017-10-24T00:50:43.282Z,99.99
2017-10-24T00:51:43.276Z,99.99
2017-10-24T00:52:43.274Z,99.98
2017-10-24T00:53:43.264Z,99.99
2017-10-24T00:54:43.265Z,99.99
2017-10-24T00:55:43.261Z,99.89
2017-10-24T00:56:43.258Z,99.99
2017-10-24T00:57:43.253Z,99.99
2017-10-24T00:58:43.253Z,99.99
2017-10-24T00:59:43.246Z,99.99
2017-10-24T01:00:43.241Z,99.99
2017-10-24T01:01:43.241Z,99.99
2017-10-24T01:02:43.235Z,99.99
2017-10-24T01:03:43.230Z,99.99
2017-10-24T01:04:43.225Z,99.99
2017-10-24T01:05:43.222Z,99.99
2017-10-24T01:06:43.216Z,99.99
2017-10-24T01:07:43.214Z,99.99
2017-10-24T01:08:43.218Z,99.99
2017-10-24T01:09:43.209Z,99.99
2017-10-24T01:10:43.206Z,99.99
2017-10-24T01:11:43.206Z,99.99
2017-10-24T01:12:43.200Z,99.99
2017-10-24T01:13:43.193Z,99.99
2017-10-24T01:14:43.192Z,99.99
2017-10-24T01:15:43.189Z,99.99
2017-10-24T01:16:43.183Z,99.99
2017-10-24T01:17:43.181Z,99.99
2017-10-24T01:18:43.183Z,99.99
2017-10-24T01:19:43.176Z,99.99
2017-10-24T01:20:43.171Z,99.99
2017-10-24T01:21:43.173Z,99.99
2017-10-24T01:22:43.163Z,99.99
2017-10-24T01:23:43.158Z,99.99
2017-10-24T01:24:43.155Z,99.99
2017-10-24T01:25:43.152Z,99.99
2017-10-24T01:26:43.148Z,99.99
2017-10-24T01:27:43.156Z,99.99
2017-10-24T01:28:43.140Z,99.99
2017-10-24T01:29:43.136Z,99.99
2017-10-24T01:30:43.133Z,99.99
2017-10-24T01:31:43.128Z,99.99
2017-10-24T01:32:43.120Z,99.99
2017-10-24T01:33:43.123Z,99.99
2017-10-24T01:34:43.118Z,99.89
2017-10-24T01:35:43.114Z,99.99
2017-10-24T01:36:43.109Z,99.99
2017-10-24T01:37:43.108Z,99.99
2017-10-24T01:38:43.103Z,99.75
2017-10-24T01:39:43.100Z,99.99
2017-10-24T01:40:43.097Z,99.99
2017-10-24T01:41:43.095Z,99.99
2017-10-24T01:42:43.090Z,99.65
2017-10-24T01:43:43.083Z,99.99
2017-10-24T01:44:43.084Z,99.51
2017-10-24T01:45:43.080Z,99.65
2017-10-24T01:46:43.073Z,99.84
2017-10-24T01:47:43.073Z,99.98
2017-10-24T01:48:43.069Z,99.99
2017-10-24T01:49:43.065Z,99.99
2017-10-24T01:50:43.059Z,99.65
2017-10-24T01:51:43.059Z,99.99
2017-10-24T01:52:43.049Z,99.75
2017-10-24T01:53:43.052Z,99.51
2017-10-24T01:54:43.047Z,99.69
2017-10-24T01:55:43.041Z,99.79
2017-10-24T01:56:43.040Z,99.65
2017-10-24T01:57:43.038Z,99.65
2017-10-24T01:58:43.031Z,99.98
2017-10-24T01:59:43.030Z,99.94
2017-10-24T02:00:43.025Z,99.99
2017-10-24T02:01:43.024Z,99.89
2017-10-24T02:02:43.019Z,99.98
2017-10-24T02:03:43.013Z,99.55
2017-10-24T02:04:43.010Z,99.65
2017-10-24T02:05:43.005Z,99.84
2017-10-24T02:06:43.004Z,99.79
2017-10-24T02:07:43.000Z,99.89
2017-10-24T02:08:42.998Z,99.99
2017-10-24T02:09:42.992Z,99.75
2017-10-24T02:10:42.987Z,99.99
2017-10-24T02:11:42.993Z,99.84
2017-10-24T02:12:42.984Z,99.75
2017-10-24T02:13:42.979Z,99.99
2017-10-24T02:14:42.981Z,99.37
2017-10-24T02:15:42.971Z,99.55
2017-10-24T02:16:42.967Z,99.75
2017-10-24T02:17:42.972Z,99.84
2017-10-24T02:18:42.960Z,99.55
2017-10-24T02:19:42.954Z,99.27
2017-10-24T02:20:42.964Z,99.55
2017-10-24T02:21:42.956Z,99.65
2017-10-24T02:22:42.947Z,99.37
2017-10-24T02:23:42.943Z,99.65
2017-10-24T02:24:42.944Z,99.27
2017-10-24T02:25:42.936Z,99.65
2017-10-24T02:26:42.933Z,99.18
2017-10-24T02:27:42.930Z,99.27
2017-10-24T02:28:42.924Z,99.27
2017-10-24T02:29:42.921Z,99.18
2017-10-24T02:30:42.921Z,99.18
2017-10-24T02:31:42.920Z,99.55
2017-10-24T02:32:42.911Z,99.46
2017-10-24T02:33:42.908Z,99.46
2017-10-24T02:34:42.905Z,99.08
2017-10-24T02:35:42.900Z,99.46
2017-10-24T02:36:42.900Z,99.18
2017-10-24T02:37:42.895Z,99.27
2017-10-24T02:38:42.895Z,99.27
2017-10-24T02:39:42.890Z,99.46
2017-10-24T02:40:42.887Z,98.70
2017-10-24T02:41:42.884Z,99.37
2017-10-24T02:42:42.876Z,99.08
2017-10-24T02:43:42.873Z,99.08
2017-10-24T02:44:42.874Z,99.18
2017-10-24T02:45:42.869Z,98.99
2017-10-24T02:46:42.862Z,99.27
2017-10-24T02:47:42.860Z,99.27
2017-10-24T02:48:42.857Z,99.46
2017-10-24T02:49:42.865Z,98.99
2017-10-24T02:50:42.851Z,98.70
2017-10-24T02:51:42.850Z,98.89
2017-10-24T02:52:42.843Z,98.60
2017-10-24T02:53:42.844Z,98.79
2017-10-24T02:54:42.845Z,98.79
2017-10-24T02:55:42.834Z,98.32
2017-10-24T02:56:42.832Z,99.27
2017-10-24T02:57:42.827Z,98.41
2017-10-24T02:58:42.828Z,98.22
2017-10-24T02:59:42.821Z,98.89
2017-10-24T03:00:42.816Z,98.99
2017-10-24T03:01:42.816Z,98.51
2017-10-24T03:02:42.806Z,98.70
2017-10-24T03:03:42.805Z,99.46
2017-10-24T03:04:42.803Z,98.70
2017-10-24T03:05:42.813Z,98.70
2017-10-24T03:06:42.797Z,98.79
2017-10-24T03:07:42.809Z,98.60
2017-10-24T03:08:42.788Z,98.79
2017-10-24T03:09:42.783Z,98.51
2017-10-24T03:10:42.783Z,98.70
2017-10-24T03:11:42.779Z,98.51
2017-10-24T03:12:42.777Z,98.79
2017-10-24T03:13:42.772Z,98.89
2017-10-24T03:14:42.769Z,98.51
2017-10-24T03:15:42.766Z,99.37
2017-10-24T03:16:42.762Z,99.27
2017-10-24T03:17:42.754Z,98.70
2017-10-24T03:18:42.760Z,98.60
2017-10-24T03:19:42.755Z,98.89
2017-10-24T03:20:42.757Z,98.70
2017-10-24T03:21:42.746Z,99.46
2017-10-24T03:22:42.744Z,98.22
2017-10-24T03:23:42.737Z,98.60
2017-10-24T03:24:42.735Z,98.60
2017-10-24T03:25:42.732Z,99.27
2017-10-24T03:26:42.729Z,98.51
2017-10-24T03:27:42.723Z,98.22
2017-10-24T03:28:42.729Z,98.22
2017-10-24T03:29:42.718Z,98.51
2017-10-24T03:30:42.716Z,98.99
2017-10-24T03:31:42.712Z,99.27
2017-10-24T03:32:42.709Z,98.99
2017-10-24T03:33:42.705Z,99.75
2017-10-24T03:34:42.701Z,99.99
2017-10-24T03:35:42.698Z,99.75
2017-10-24T03:36:42.700Z,99.46
2017-10-24T03:37:42.691Z,98.41
2017-10-24T03:38:42.690Z,99.37
2017-10-24T03:39:42.684Z,99.18
2017-10-24T03:40:42.675Z,99.84
2017-10-24T03:41:42.679Z,99.99
2017-10-24T03:42:42.674Z,99.84
2017-10-24T03:43:42.671Z,99.99
2017-10-24T03:44:42.669Z,99.99
2017-10-24T03:45:42.664Z,99.99
2017-10-24T03:46:42.666Z,99.99
2017-10-24T03:47:42.658Z,99.75
2017-10-24T03:48:42.655Z,99.94
2017-10-24T03:49:42.652Z,99.99
2017-10-24T03:50:42.648Z,99.99
2017-10-24T03:51:42.646Z,99.84
2017-10-24T03:52:42.638Z,99.75
2017-10-24T03:53:42.641Z,99.99
2017-10-24T03:54:42.636Z,99.99
2017-10-24T03:55:42.635Z,99.55
2017-10-24T03:56:42.623Z,99.65
2017-10-24T03:57:42.624Z,99.08
2017-10-24T03:58:42.623Z,99.55
2017-10-24T03:59:42.614Z,99.37
2017-10-24T04:00:42.619Z,99.46
2017-10-24T04:01:42.613Z,99.46
2017-10-24T04:02:42.611Z,99.46
2017-10-24T04:03:42.608Z,99.37
2017-10-24T04:04:42.603Z,99.27
2017-10-24T04:05:42.600Z,99.27
2017-10-24T04:06:42.599Z,98.70
2017-10-24T04:07:42.593Z,99.18
2017-10-24T04:08:42.592Z,98.99
2017-10-24T04:09:42.588Z,99.37
2017-10-24T04:10:42.590Z,99.37
2017-10-24T04:11:42.583Z,99.46
2017-10-24T04:12:42.576Z,99.18
2017-10-24T04:13:42.575Z,99.37
2017-10-24T04:14:42.572Z,99.46
2017-10-24T04:15:42.568Z,99.46
2017-10-24T04:16:42.563Z,99.65
2017-10-24T04:17:42.562Z,99.65
2017-10-24T04:18:42.559Z,99.18
2017-10-24T04:19:42.556Z,98.99
2017-10-24T04:20:42.555Z,99.46
2017-10-24T04:21:42.549Z,99.08
2017-10-24T04:22:42.548Z,99.55
2017-10-24T04:23:42.543Z,98.89
2017-10-24T04:24:42.536Z,99.27
2017-10-24T04:25:42.541Z,99.37
2017-10-24T04:26:42.533Z,99.94
2017-10-24T04:27:42.529Z,99.65
2017-10-24T04:28:42.530Z,99.46
2017-10-24T04:29:42.524Z,99.37
2017-10-24T04:30:42.521Z,98.89
2017-10-24T04:31:42.517Z,99.18
2017-10-24T04:32:42.512Z,98.89
2017-10-24T04:33:42.510Z,99.46
2017-10-24T04:34:42.508Z,99.27
2017-10-24T04:35:42.503Z,99.46
2017-10-24T04:36:42.498Z,99.55
2017-10-24T04:37:42.493Z,99.27
2017-10-24T04:38:42.497Z,99.08
2017-10-24T04:39:42.490Z,98.99
2017-10-24T04:40:42.489Z,99.55
2017-10-24T04:41:42.484Z,99.27
2017-10-24T04:42:42.480Z,99.27
2017-10-24T04:43:42.472Z,99.27
2017-10-24T04:44:42.471Z,99.08
2017-10-24T04:45:42.470Z,99.18
2017-10-24T04:46:42.470Z,99.55
2017-10-24T04:47:42.468Z,99.65
2017-10-24T04:48:42.460Z,99.27
2017-10-24T04:49:42.456Z,99.18
2017-10-24T04:50:42.458Z,99.37
2017-10-24T04:51:42.453Z,99.55
2017-10-24T04:52:42.450Z,99.46
2017-10-24T04:53:42.444Z,99.37
2017-10-24T04:54:42.440Z,99.37
2017-10-24T04:55:42.437Z,99.08
2017-10-24T04:56:42.436Z,99.75
2017-10-24T04:57:42.435Z,99.84
2017-10-24T04:58:42.430Z,99.55
2017-10-24T04:59:42.426Z,99.99
2017-10-24T05:00:42.425Z,99.46
2017-10-24T05:01:42.445Z,99.65
2017-10-24T05:02:42.414Z,99.65
2017-10-24T05:03:42.409Z,99.84
2017-10-24T05:04:42.408Z,99.65
2017-10-24T05:05:42.409Z,99.55
2017-10-24T05:06:42.403Z,99.46
2017-10-24T05:07:42.400Z,99.99
2017-10-24T05:08:42.400Z,99.55
2017-10-24T05:09:42.392Z,99.37
2017-10-24T05:10:42.390Z,99.08
2017-10-24T05:11:42.389Z,99.18
2017-10-24T05:12:42.380Z,99.18
2017-10-24T05:13:42.379Z,98.89
2017-10-24T05:14:42.377Z,99.27
2017-10-24T05:15:42.372Z,99.08
2017-10-24T05:16:42.373Z,99.99
2017-10-24T05:17:42.366Z,99.08
2017-10-24T05:18:42.364Z,99.99
2017-10-24T05:19:42.359Z,99.75
2017-10-24T05:20:42.353Z,99.75
2017-10-24T05:21:42.355Z,99.75
2017-10-24T05:22:42.349Z,99.55
2017-10-24T05:23:42.347Z,99.55
2017-10-24T05:24:42.344Z,99.18
2017-10-24T05:25:42.339Z,99.37
2017-10-24T05:26:42.346Z,99.37
2017-10-24T05:27:42.333Z,99.27
2017-10-24T05:28:42.329Z,98.70
2017-10-24T05:29:42.326Z,99.08
2017-10-24T05:30:42.327Z,98.99
2017-10-24T05:31:42.333Z,98.41
2017-10-24T05:32:42.316Z,98.99
2017-10-24T05:33:42.315Z,99.27
2017-10-24T05:34:42.311Z,98.70
2017-10-24T05:35:42.306Z,98.70
2017-10-24T05:36:42.315Z,98.70
2017-10-24T05:37:42.302Z,98.70
2017-10-24T05:38:42.297Z,98.22
2017-10-24T05:39:42.292Z,99.08
2017-10-24T05:40:42.286Z,98.89
2017-10-24T05:41:42.289Z,98.60
2017-10-24T05:42:42.283Z,98.70
2017-10-24T05:43:42.277Z,99.27
2017-10-24T05:44:42.276Z,98.70
2017-10-24T05:45:42.283Z,98.79
2017-10-24T05:46:42.270Z,98.79
2017-10-24T05:47:42.267Z,98.32
2017-10-24T05:48:42.269Z,98.60
2017-10-24T05:49:42.260Z,98.51
2017-10-24T05:50:42.257Z,98.60
2017-10-24T05:51:42.250Z,98.51
2017-10-24T05:52:42.252Z,98.51
2017-10-24T05:53:42.244Z,98.79
2017-10-24T05:54:42.244Z,98.79
2017-10-24T05:55:42.238Z,98.51
2017-10-24T05:56:42.236Z,98.60
2017-10-24T05:57:42.231Z,98.60
2017-10-24T05:58:42.232Z,99.08
2017-10-24T05:59:42.238Z,98.41
2017-10-24T06:00:42.222Z,98.41
2017-10-24T06:01:42.218Z,98.13
2017-10-24T06:02:42.215Z,98.70
2017-10-24T06:03:42.211Z,98.22
2017-10-24T06:04:42.211Z,98.70
2017-10-24T06:05:42.210Z,98.22
2017-10-24T06:06:42.198Z,98.22
2017-10-24T06:07:42.199Z,98.32
2017-10-24T06:08:42.198Z,97.56
2017-10-24T06:09:42.192Z,97.94
2017-10-24T06:10:42.191Z,98.51
2017-10-24T06:11:42.191Z,97.75
2017-10-24T06:12:42.186Z,97.84
2017-10-24T06:13:42.183Z,97.94
2017-10-24T06:14:42.180Z,98.60
2017-10-24T06:15:42.173Z,98.70
2017-10-24T06:16:42.169Z,97.84
2017-10-24T06:17:42.168Z,97.08
2017-10-24T06:18:42.165Z,97.56
2017-10-24T06:19:42.159Z,98.22
2017-10-24T06:20:42.162Z,97.75
2017-10-24T06:21:42.152Z,96.80
2017-10-24T06:22:42.153Z,96.75
2017-10-24T06:23:42.147Z,97.13
2017-10-24T06:24:42.148Z,96.94
2017-10-24T06:25:42.143Z,97.08
2017-10-24T06:26:42.139Z,96.80
2017-10-24T06:27:42.134Z,96.75
2017-10-24T06:28:42.132Z,97.03
2017-10-24T06:29:42.136Z,96.75
2017-10-24T06:30:42.127Z,97.13
2017-10-24T06:31:42.129Z,96.65
2017-10-24T06:32:42.122Z,96.65
2017-10-24T06:33:42.121Z,96.27
2017-10-24T06:34:42.114Z,97.22
2017-10-24T06:35:42.108Z,96.75
2017-10-24T06:36:42.108Z,96.27
2017-10-24T06:37:42.104Z,96.17
2017-10-24T06:38:42.101Z,95.41
2017-10-24T06:39:42.099Z,95.61
2017-10-24T06:40:42.097Z,95.79
2017-10-24T06:41:42.093Z,96.08
2017-10-24T06:42:42.093Z,95.89
2017-10-24T06:43:42.088Z,96.46
2017-10-24T06:44:42.085Z,95.98
2017-10-24T06:45:42.083Z,95.98
2017-10-24T06:46:42.081Z,96.75
2017-10-24T06:47:42.077Z,95.32
2017-10-24T06:48:42.072Z,95.51
2017-10-24T06:49:42.072Z,95.51
2017-10-24T06:50:42.067Z,96.27
2017-10-24T06:51:42.065Z,95.41
2017-10-24T06:52:42.064Z,96.08
2017-10-24T06:53:42.071Z,95.41
2017-10-24T06:54:42.057Z,95.22
2017-10-24T06:55:42.052Z,94.98
2017-10-24T06:56:42.053Z,95.12
2017-10-24T06:57:42.047Z,95.32
2017-10-24T06:58:42.040Z,95.22
2017-10-24T06:59:42.040Z,95.22
2017-10-24T07:00:42.034Z,94.79
2017-10-24T07:01:42.036Z,95.12
2017-10-24T07:02:42.037Z,95.17
2017-10-24T07:03:42.033Z,95.84
2017-10-24T07:04:42.036Z,94.46
2017-10-24T07:05:42.029Z,94.41
2017-10-24T07:06:42.021Z,94.65
2017-10-24T07:07:42.021Z,95.27
2017-10-24T07:08:42.017Z,94.41
2017-10-24T07:09:42.018Z,94.56
2017-10-24T07:10:42.015Z,94.60
2017-10-24T07:11:42.012Z,93.79
2017-10-24T07:12:42.012Z,94.41
2017-10-24T07:13:42.012Z,95.37
2017-10-24T07:14:42.002Z,95.27
2017-10-24T07:15:41.995Z,94.03
2017-10-24T07:16:41.999Z,94.37
2017-10-24T07:17:41.998Z,94.70
2017-10-24T07:18:41.993Z,93.84
2017-10-24T07:19:41.989Z,94.03
2017-10-24T07:20:41.982Z,93.84
2017-10-24T07:21:41.996Z,93.65
2017-10-24T07:22:41.983Z,93.46
2017-10-24T07:23:41.984Z,94.22
2017-10-24T07:24:41.977Z,93.27
2017-10-24T07:25:41.979Z,93.74
2017-10-24T07:26:41.978Z,93.93
2017-10-24T07:27:41.968Z,94.03
2017-10-24T07:28:41.971Z,94.03
2017-10-24T07:29:41.965Z,93.74
2017-10-24T07:30:41.988Z,94.32
2017-10-24T07:31:41.963Z,93.74
2017-10-24T07:32:41.958Z,92.98
2017-10-24T07:33:41.955Z,92.79
2017-10-24T07:34:42.124Z,92.88
2017-10-24T07:35:41.950Z,92.79
2017-10-24T07:36:41.943Z,93.84
2017-10-24T07:37:41.941Z,93.65
2017-10-24T07:38:41.943Z,93.55
2017-10-24T07:39:41.947Z,92.88
2017-10-24T07:40:41.954Z,92.88
2017-10-24T07:41:41.933Z,92.69
2017-10-24T07:42:41.957Z,92.65
2017-10-24T07:43:41.929Z,91.93
2017-10-24T07:44:41.937Z,92.03
2017-10-24T07:45:41.928Z,92.41
2017-10-24T07:46:41.923Z,92.22
2017-10-24T07:47:41.922Z,91.98
2017-10-24T07:48:41.919Z,92.07
2017-10-24T07:49:41.916Z,91.88
2017-10-24T07:50:41.916Z,91.69
2017-10-24T07:51:41.915Z,91.88
2017-10-24T07:52:41.915Z,92.26
2017-10-24T07:53:41.910Z,91.98
2017-10-24T07:54:41.908Z,91.78
2017-10-24T07:55:41.905Z,91.98
2017-10-24T07:56:41.903Z,91.98
2017-10-24T07:57:41.899Z,91.21
2017-10-24T07:58:41.972Z,91.31
2017-10-24T07:59:41.902Z,91.88
2017-10-24T08:00:41.894Z,91.69
2017-10-24T08:01:41.893Z,91.69
2017-10-24T08:02:41.894Z,91.60
2017-10-24T08:03:41.889Z,91.88
2017-10-24T08:04:41.885Z,91.98
2017-10-24T08:05:41.885Z,91.21
2017-10-24T08:06:41.883Z,90.55
2017-10-24T08:07:41.875Z,89.78
2017-10-24T08:08:41.879Z,89.78
2017-10-24T08:09:41.877Z,90.64
2017-10-24T08:10:41.871Z,91.12
2017-10-24T08:11:41.873Z,90.64
2017-10-24T08:12:41.874Z,90.40
2017-10-24T08:13:41.869Z,90.21
2017-10-24T08:14:41.865Z,90.59
2017-10-24T08:15:41.862Z,89.92
2017-10-24T08:16:41.864Z,89.83
2017-10-24T08:17:41.862Z,89.45
2017-10-24T08:18:41.865Z,89.35
2017-10-24T08:19:41.858Z,88.68
2017-10-24T08:20:41.856Z,88.97
2017-10-24T08:21:41.853Z,89.21
2017-10-24T08:22:41.856Z,88.73
2017-10-24T08:23:41.851Z,88.87
2017-10-24T08:24:41.846Z,88.87
2017-10-24T08:25:41.847Z,89.54
2017-10-24T08:26:41.862Z,89.45
2017-10-24T08:27:41.844Z,89.35
2017-10-24T08:28:41.842Z,89.50
2017-10-24T08:29:41.841Z,89.35
2017-10-24T08:30:41.837Z,89.50
2017-10-24T08:31:41.836Z,90.36
2017-10-24T08:32:41.836Z,90.17
2017-10-24T08:33:41.836Z,89.12
2017-10-24T08:34:41.834Z,89.50
2017-10-24T08:35:41.829Z,90.17
2017-10-24T08:36:41.826Z,90.36
2017-10-24T08:37:41.826Z,89.78
2017-10-24T08:38:41.823Z,90.07
2017-10-24T08:39:41.819Z,90.07
2017-10-24T08:40:41.819Z,89.88
2017-10-24T08:41:41.823Z,89.88
2017-10-24T08:42:41.825Z,89.78
2017-10-24T08:43:41.816Z,89.88
2017-10-24T08:44:41.812Z,89.64
2017-10-24T08:45:41.811Z,89.54
2017-10-24T08:46:41.807Z,89.54
2017-10-24T08:47:41.807Z,88.97
2017-10-24T08:48:41.798Z,88.11
2017-10-24T08:49:41.800Z,88.20
2017-10-24T08:50:41.802Z,88.20
2017-10-24T08:51:41.799Z,87.63
2017-10-24T08:52:41.800Z,86.91
2017-10-24T08:53:41.799Z,87.01
2017-10-24T08:54:41.795Z,86.77
2017-10-24T08:55:41.788Z,86.10
2017-10-24T08:56:41.781Z,86.20
2017-10-24T08:57:41.785Z,87.35
2017-10-24T08:58:41.785Z,88.44
2017-10-24T08:59:41.782Z,86.91
2017-10-24T09:00:41.779Z,86.05
2017-10-24T09:01:41.778Z,85.67
2017-10-24T09:02:41.780Z,85.48
2017-10-24T09:03:41.775Z,85.10
2017-10-24T09:04:41.773Z,83.86
2017-10-24T09:05:41.779Z,84.14
2017-10-24T09:06:41.767Z,83.95
2017-10-24T09:07:41.770Z,84.19
2017-10-24T09:08:41.767Z,83.42
2017-10-24T09:09:41.769Z,82.84
2017-10-24T09:10:41.766Z,83.23
2017-10-24T09:11:41.762Z,83.42
2017-10-24T09:12:41.763Z,82.46
2017-10-24T09:13:41.760Z,81.70
2017-10-24T09:14:41.760Z,81.79
2017-10-24T09:15:41.761Z,81.32
2017-10-24T09:16:41.782Z,81.41
2017-10-24T09:17:41.766Z,81.41
2017-10-24T09:18:41.755Z,81.45
2017-10-24T09:19:41.750Z,81.55
2017-10-24T09:20:41.753Z,81.26
2017-10-24T09:21:41.752Z,81.16
2017-10-24T09:22:41.754Z,80.02
2017-10-24T09:23:41.756Z,80.21
2017-10-24T09:24:41.756Z,80.50
2017-10-24T09:25:41.749Z,79.35
2017-10-24T09:26:41.748Z,79.25
2017-10-24T09:27:41.744Z,78.49
2017-10-24T09:28:41.746Z,78.97
2017-10-24T09:29:41.747Z,79.54
2017-10-24T09:30:41.749Z,80.11
2017-10-24T09:31:41.742Z,80.50
2017-10-24T09:32:41.748Z,80.50
2017-10-24T09:33:41.747Z,78.49
2017-10-24T09:34:41.742Z,80.02
2017-10-24T09:35:41.744Z,80.30
2017-10-24T09:36:41.751Z,79.83
2017-10-24T09:37:41.742Z,79.16
2017-10-24T09:38:41.746Z,79.25
2017-10-24T09:39:41.739Z,79.93
2017-10-24T09:40:41.740Z,79.64
2017-10-24T09:41:41.743Z,78.49
2017-10-24T09:42:41.744Z,78.01
2017-10-24T09:43:41.739Z,78.01
2017-10-24T09:44:41.757Z,78.20
2017-10-24T09:45:41.737Z,77.92
2017-10-24T09:46:41.739Z,79.68
2017-10-24T09:47:41.738Z,78.49
2017-10-24T09:48:41.744Z,79.00
2017-10-24T09:49:41.740Z,78.97
2017-10-24T09:50:41.739Z,77.53
2017-10-24T09:51:41.737Z,77.25
2017-10-24T09:52:41.740Z,77.44
2017-10-24T09:53:41.738Z,78.20
2017-10-24T09:54:41.742Z,78.11
2017-10-24T09:55:41.739Z,77.44
2017-10-24T09:56:41.735Z,76.57
2017-10-24T09:57:41.739Z,76.29
2017-10-24T09:58:41.736Z,77.34
2017-10-24T09:59:41.745Z,77.34
2017-10-24T10:00:41.762Z,76.67
2017-10-24T10:01:41.740Z,76.20
2017-10-24T10:02:41.743Z,76.20
2017-10-24T10:03:41.736Z,76.86
2017-10-24T10:04:41.738Z,76.81
2017-10-24T10:05:41.739Z,76.04
2017-10-24T10:06:41.737Z,75.47
2017-10-24T10:07:41.737Z,74.32
2017-10-24T10:08:41.740Z,74.41
2017-10-24T10:09:41.740Z,74.51
2017-10-24T10:10:41.752Z,74.22
2017-10-24T10:11:41.749Z,74.57
2017-10-24T10:12:41.740Z,75.43
2017-10-24T10:13:41.740Z,75.71
2017-10-24T10:14:41.740Z,76.20
2017-10-24T10:15:41.736Z,76.48
2017-10-24T10:16:41.738Z,77.25
2017-10-24T10:17:41.735Z,77.34
2017-10-24T10:18:41.740Z,76.67
2017-10-24T10:19:41.743Z,76.77
2017-10-24T10:20:41.736Z,76.57
2017-10-24T10:21:41.738Z,75.56
2017-10-24T10:22:41.741Z,76.14
2017-10-24T10:23:41.738Z,75.52
2017-10-24T10:24:41.730Z,75.56
2017-10-24T10:25:41.738Z,76.62
2017-10-24T10:26:41.736Z,76.14
2017-10-24T10:27:41.737Z,75.95
2017-10-24T10:28:41.741Z,76.08
2017-10-24T10:29:41.750Z,76.84
2017-10-24T10:30:41.737Z,74.36
2017-10-24T10:31:41.734Z,74.13
2017-10-24T10:32:41.738Z,74.04
2017-10-24T10:33:41.734Z,75.76
2017-10-24T10:34:41.740Z,75.22
2017-10-24T10:35:41.736Z,73.50
2017-10-24T10:36:41.739Z,73.65
2017-10-24T10:37:41.739Z,73.94
2017-10-24T10:38:41.741Z,73.65
2017-10-24T10:39:41.740Z,73.36
2017-10-24T10:40:41.739Z,73.50
2017-10-24T10:41:42.035Z,73.59
2017-10-24T10:42:42.012Z,74.84
2017-10-24T10:43:41.742Z,74.45
2017-10-24T10:44:41.751Z,72.92
2017-10-24T10:45:41.757Z,73.69
2017-10-24T10:46:41.742Z,74.26
2017-10-24T10:47:41.743Z,73.21
2017-10-24T10:48:41.742Z,71.97
2017-10-24T10:49:41.743Z,71.87
2017-10-24T10:50:41.751Z,71.48
2017-10-24T10:51:41.743Z,71.39
2017-10-24T10:52:41.748Z,72.54
2017-10-24T10:53:41.744Z,71.97
2017-10-24T10:54:41.745Z,72.63
2017-10-24T10:55:41.742Z,72.44
2017-10-24T10:56:41.756Z,71.58
2017-10-24T10:57:41.747Z,71.20
2017-10-24T10:58:41.748Z,72.73
2017-10-24T10:59:41.748Z,70.62
2017-10-24T11:00:41.749Z,72.54
2017-10-24T11:01:41.750Z,71.58
2017-10-24T11:02:41.750Z,72.48
2017-10-24T11:03:41.755Z,71.91
2017-10-24T11:04:41.750Z,71.81
2017-10-24T11:05:41.767Z,70.85
2017-10-24T11:06:41.752Z,70.18
2017-10-24T11:07:41.751Z,69.48
2017-10-24T11:08:41.755Z,69.70
2017-10-24T11:09:41.757Z,70.28
2017-10-24T11:10:41.756Z,71.01
2017-10-24T11:11:41.754Z,72.73
2017-10-24T11:12:41.769Z,72.67
2017-10-24T11:13:41.760Z,72.48
2017-10-24T11:14:41.758Z,71.62
2017-10-24T11:15:41.755Z,70.47
2017-10-24T11:16:41.761Z,70.95
2017-10-24T11:17:41.762Z,71.11
2017-10-24T11:18:41.762Z,70.76
2017-10-24T11:19:41.760Z,71.33
2017-10-24T11:20:41.763Z,71.52
2017-10-24T11:21:41.765Z,71.81
2017-10-24T11:22:41.808Z,71.04
2017-10-24T11:23:41.772Z,70.47
2017-10-24T11:24:41.770Z,71.04
2017-10-24T11:25:41.785Z,71.62
2017-10-24T11:26:41.789Z,71.04
2017-10-24T11:27:41.777Z,71.62
2017-10-24T11:28:41.772Z,71.71
2017-10-24T11:29:41.775Z,71.01
2017-10-24T11:30:41.775Z,71.01
2017-10-24T11:31:41.776Z,71.52
2017-10-24T11:32:41.776Z,72.96
2017-10-24T11:33:41.773Z,71.14
2017-10-24T11:34:41.782Z,69.99
2017-10-24T11:35:41.797Z,71.04
2017-10-24T11:36:41.780Z,69.89
2017-10-24T11:37:41.798Z,70.09
2017-10-24T11:38:41.782Z,70.09
2017-10-24T11:39:41.785Z,70.28
2017-10-24T11:40:41.784Z,70.95
2017-10-24T11:41:41.785Z,70.18
2017-10-24T11:42:41.792Z,70.95
2017-10-24T11:43:41.789Z,70.09
2017-10-24T11:44:41.789Z,70.09
2017-10-24T11:45:41.790Z,69.89
2017-10-24T11:46:41.792Z,69.99
2017-10-24T11:47:41.792Z,71.77
2017-10-24T11:48:41.797Z,71.71
2017-10-24T11:49:41.794Z,72.38
2017-10-24T11:50:41.792Z,72.00
2017-10-24T11:51:41.796Z,71.14
2017-10-24T11:52:41.804Z,71.91
2017-10-24T11:53:41.794Z,71.81
2017-10-24T11:54:41.797Z,70.95
2017-10-24T11:55:41.800Z,70.18
2017-10-24T11:56:41.799Z,71.04
2017-10-24T11:57:41.796Z,72.00
2017-10-24T11:58:41.801Z,71.68
2017-10-24T11:59:41.808Z,71.48
2017-10-24T12:00:41.802Z,71.58
2017-10-24T12:01:41.798Z,71.01
2017-10-24T12:02:41.808Z,70.43
2017-10-24T12:03:41.808Z,71.39
2017-10-24T12:04:41.806Z,71.48
2017-10-24T12:05:41.810Z,71.58
2017-10-24T12:06:41.808Z,71.20
2017-10-24T12:07:41.809Z,72.44
2017-10-24T12:08:41.812Z,73.40
2017-10-24T12:09:41.812Z,73.69
2017-10-24T12:10:41.811Z,72.73
2017-10-24T12:11:41.822Z,72.54
2017-10-24T12:12:41.821Z,73.02
2017-10-24T12:13:41.814Z,72.83
2017-10-24T12:14:41.813Z,73.69
2017-10-24T12:15:41.814Z,71.77
2017-10-24T12:16:41.814Z,72.63
2017-10-24T12:17:41.815Z,72.73
2017-10-24T12:18:41.817Z,72.22
2017-10-24T12:19:41.822Z,72.50
2017-10-24T12:20:41.819Z,72.60
2017-10-24T12:21:41.837Z,72.79
2017-10-24T12:22:41.821Z,73.36
2017-10-24T12:23:41.817Z,72.88
2017-10-24T12:24:41.814Z,73.08
2017-10-24T12:25:41.825Z,74.04
2017-10-24T12:26:41.823Z,73.55
2017-10-24T12:27:41.820Z,73.75
2017-10-24T12:28:41.821Z,73.27
2017-10-24T12:29:41.818Z,73.46
2017-10-24T12:30:41.819Z,73.55
2017-10-24T12:31:41.819Z,72.98
2017-10-24T12:32:41.820Z,72.69
2017-10-24T12:33:41.821Z,72.60
2017-10-24T12:34:41.821Z,72.88
2017-10-24T12:35:41.822Z,73.36
2017-10-24T12:36:41.818Z,73.33
2017-10-24T12:37:41.819Z,75.09
2017-10-24T12:38:41.819Z,74.13
2017-10-24T12:39:41.817Z,76.33
2017-10-24T12:40:41.820Z,74.41
2017-10-24T12:41:41.819Z,74.22
2017-10-24T12:42:41.823Z,74.99
2017-10-24T12:43:41.819Z,74.04
2017-10-24T12:44:41.819Z,75.27
2017-10-24T12:45:41.819Z,74.70
2017-10-24T12:46:41.818Z,74.70
2017-10-24T12:47:41.821Z,74.04
2017-10-24T12:48:41.827Z,75.18
2017-10-24T12:49:41.830Z,74.22
2017-10-24T12:50:41.815Z,74.22
2017-10-24T12:51:41.819Z,75.76
2017-10-24T12:52:41.814Z,75.09